Terminal Aerodrome Forecast
Issued by NWS Green Bay, WI

Home | Current Version | Previous Version | Text Only | Print | Product List | Glossary On
Versions: 1 2 3 4 5 6 7 8 9 10 11 12 13 14 15 16 17 18 19 20 21 22 23 24 25 26 27
000
FTUS43 KGRB 231900 AAA
TAFGRB
TAF AMD
KGRB 231949Z 2320/2418 19007KT 6SM -SHRA SCT040 OVC070
      TEMPO 2321/2323 3SM -SHRA BR BKN035
     FM232300 19006KT 4SM -SHRA BR OVC015
     FM240100 24004KT 4SM BR BKN012
     FM240800 VRB03KT 1/2SM FG VV002
     FM241400 24003KT 5SM BR BKN008=

USA.gov is the U.S. government's official web portal to all federal, state and local government web resources and services.